Time;durP1;ratioP1;P1;durP2;ratioP2;P2;SDS_P1;SDS_P2;PMS_P1;PMS_P2;Temp;Humidity;BMP_temperature;BMP_pressure;BME280_temperature;BME280_humidity;BME280_pressure;Samples;Min_cycle;Max_cycle;Signal;HPM_P1;HPM_P2
2021/12/21 00:00:42;;;;;;;7.55;3.90;;;;;;;-0.57;83.63;99040.80;1709190;84;21034;-80
2021/12/21 00:03:10;;;;;;;8.53;4.25;;;;;;;-0.54;83.49;99039.56;1690961;83;21175;-80
2021/12/21 00:05:38;;;;;;;11.70;4.53;;;;;;;-0.53;82.77;99041.72;1696166;83;21048;-80
2021/12/21 00:08:12;;;;;;;9.83;4.28;;;;;;;-0.54;83.71;99048.50;1683409;84;21055;-80
2021/12/21 00:10:43;;;;;;;10.98;4.37;;;;;;;-0.55;83.32;99048.07;1706072;84;20997;-81
2021/12/21 00:16:28;;;;;;;10.05;4.37;;;;;;;-0.52;83.82;99061.30;1705639;84;21067;-81
2021/12/21 00:19:07;;;;;;;12.93;4.15;;;;;;;-0.51;83.87;99063.05;1684917;84;21030;-81
2021/12/21 00:21:34;;;;;;;8.58;4.28;;;;;;;-0.47;82.92;99060.98;1695433;84;21031;-80
2021/12/21 00:23:58;;;;;;;11.85;4.75;;;;;;;-0.43;83.48;99057.66;1700114;84;21618;-82
2021/12/21 00:26:22;;;;;;;12.40;4.45;;;;;;;-0.44;83.49;99055.92;1704840;84;21171;-81
2021/12/21 00:28:59;;;;;;;14.18;5.03;;;;;;;-0.41;83.04;99061.09;1691180;85;21064;-81
2021/12/21 00:31:29;;;;;;;11.33;4.67;;;;;;;-0.39;82.39;99059.43;1703949;84;21051;-80
2021/12/21 00:33:59;;;;;;;8.05;3.58;;;;;;;-0.37;82.45;99065.85;1698033;83;21047;-81
2021/12/21 00:36:29;;;;;;;10.18;4.42;;;;;;;-0.40;83.38;99066.63;1709785;84;21308;-81
2021/12/21 00:39:03;;;;;;;10.50;4.00;;;;;;;-0.37;82.44;99073.09;1675725;85;20996;-80
2021/12/21 00:41:31;;;;;;;10.35;3.52;;;;;;;-0.40;83.78;99078.13;1679869;85;21114;-81
2021/12/21 00:43:59;;;;;;;10.80;4.17;;;;;;;-0.42;84.03;99073.02;1717652;83;20961;-82
2021/12/21 00:46:27;;;;;;;9.50;4.15;;;;;;;-0.34;83.06;99082.06;1685045;83;21131;-80
2021/12/21 00:49:01;;;;;;;9.80;3.90;;;;;;;-0.38;83.88;99087.95;1721130;83;21003;-80
2021/12/21 00:51:28;;;;;;;8.35;4.40;;;;;;;-0.31;82.76;99089.80;1718032;83;21036;-79
2021/12/21 00:53:56;;;;;;;11.35;4.20;;;;;;;-0.30;83.09;99097.05;1699231;82;20975;-81
2021/12/21 00:56:23;;;;;;;10.72;5.20;;;;;;;-0.30;83.11;99091.55;1719489;83;21076;-82
2021/12/21 00:58:51;;;;;;;11.33;4.83;;;;;;;-0.25;82.84;99101.84;1722690;82;21047;-84
2021/12/21 01:01:18;;;;;;;8.50;4.22;;;;;;;-0.23;82.77;99102.72;1724848;83;20991;-83
2021/12/21 01:03:50;;;;;;;9.83;4.22;;;;;;;-0.25;82.78;99095.45;1723761;80;20979;-83
2021/12/21 01:06:37;;;;;;;12.13;4.47;;;;;;;-0.22;82.09;99095.09;1720016;82;21058;-82
2021/12/21 01:11:49;;;;;;;11.15;5.10;;;;;;;-0.26;82.36;99113.76;1669203;85;20992;-81
2021/12/21 01:17:09;;;;;;;10.23;4.30;;;;;;;-0.33;82.37;99128.52;1675488;84;21046;-80
2021/12/21 01:19:41;;;;;;;8.38;4.42;;;;;;;-0.36;82.41;99122.05;1684814;84;21049;-79
2021/12/21 01:22:16;;;;;;;13.08;3.83;;;;;;;-0.40;82.56;99116.44;1685759;83;21030;-79
2021/12/21 01:27:24;;;;;;;9.68;4.22;;;;;;;-0.47;82.47;99110.37;1686180;85;21091;-80
2021/12/21 01:32:23;;;;;;;10.93;5.00;;;;;;;-0.55;82.85;99115.74;1687240;84;21042;-79
2021/12/21 01:37:27;;;;;;;10.58;4.35;;;;;;;-0.63;83.37;99119.42;1666680;83;21106;-81
2021/12/21 01:39:54;;;;;;;10.78;5.08;;;;;;;-0.65;83.51;99126.19;1703823;83;21034;-80
2021/12/21 01:42:37;;;;;;;8.83;4.83;;;;;;;-0.67;83.71;99126.57;1707626;83;22149;-80
2021/12/21 01:50:23;;;;;;;7.70;4.37;;;;;;;-0.66;82.96;99125.76;1704690;84;20999;-78
2021/12/21 01:52:50;;;;;;;13.45;5.45;;;;;;;-0.62;82.24;99126.27;1705248;84;21067;-80
2021/12/21 01:55:18;;;;;;;9.95;4.87;;;;;;;-0.63;82.79;99138.99;1687763;84;21003;-80
2021/12/21 01:57:45;;;;;;;9.65;4.58;;;;;;;-0.66;83.68;99141.08;1706202;83;21047;-79
2021/12/21 02:00:15;;;;;;;10.80;4.47;;;;;;;-0.63;82.99;99146.23;1708663;84;21107;-80
2021/12/21 02:02:42;;;;;;;9.73;4.53;;;;;;;-0.63;82.77;99142.40;1688173;85;21586;-80
2021/12/21 02:05:10;;;;;;;10.40;4.35;;;;;;;-0.63;83.05;99146.23;1706327;84;21058;-79
2021/12/21 02:07:39;;;;;;;9.25;4.85;;;;;;;-0.58;82.18;99146.73;1688654;85;20993;-81
2021/12/21 02:10:08;;;;;;;10.63;4.22;;;;;;;-0.59;82.76;99142.48;1712006;83;20997;-81
2021/12/21 02:12:35;;;;;;;11.03;4.90;;;;;;;-0.56;82.14;99145.93;1707216;83;21012;-79
2021/12/21 02:15:04;;;;;;;11.10;4.28;;;;;;;-0.52;81.96;99145.16;1711279;83;21015;-80
2021/12/21 02:23:06;;;;;;;12.65;5.12;;;;;;;-0.52;81.42;99131.11;1688745;84;21004;-80
2021/12/21 02:28:22;;;;;;;9.98;4.67;;;;;;;-0.49;81.25;99148.21;1718551;83;21082;-78
2021/12/21 02:30:44;;;;;;;11.25;5.40;;;;;;;-0.52;81.84;99140.05;1686064;85;21370;-80
2021/12/21 02:33:13;;;;;;;9.93;4.17;;;;;;;-0.51;81.70;99141.79;1704585;84;21031;-80
2021/12/21 02:35:42;;;;;;;8.65;4.10;;;;;;;-0.46;81.44;99141.87;1694513;83;21032;-79
2021/12/21 02:38:11;;;;;;;7.85;4.28;;;;;;;-0.46;81.53;99139.31;1709069;84;21039;-80
2021/12/21 02:40:39;;;;;;;10.03;4.47;;;;;;;-0.48;81.76;99134.59;1708855;84;21027;-80
2021/12/21 02:43:09;;;;;;;9.23;4.10;;;;;;;-0.47;81.50;99139.73;1711050;84;21363;-80
2021/12/21 02:45:38;;;;;;;8.63;4.03;;;;;;;-0.45;81.35;99143.19;1715164;82;21043;-80
2021/12/21 02:48:08;;;;;;;8.58;3.77;;;;;;;-0.44;81.18;99138.54;1715413;83;21099;-80
2021/12/21 02:50:38;;;;;;;8.53;3.70;;;;;;;-0.47;81.25;99154.20;1715201;83;21012;-81
2021/12/21 02:53:08;;;;;;;7.90;3.58;;;;;;;-0.42;80.97;99153.87;1710269;84;21066;-80
2021/12/21 02:55:37;;;;;;;6.75;3.45;;;;;;;-0.41;80.87;99156.88;1694295;83;21041;-80
2021/12/21 02:58:05;;;;;;;9.43;4.03;;;;;;;-0.41;80.79;99161.56;1700329;83;21051;-80
2021/12/21 03:00:34;;;;;;;7.80;3.77;;;;;;;-0.46;81.04;99161.03;1702735;84;21059;-81
2021/12/21 03:03:07;;;;;;;7.83;4.22;;;;;;;-0.44;80.95;99158.08;1670830;84;21060;-81
2021/12/21 03:05:31;;;;;;;6.20;3.12;;;;;;;-0.41;80.73;99164.55;1701796;84;21083;-80
2021/12/21 03:10:31;;;;;;;10.28;4.03;;;;;;;-0.39;80.54;99164.59;1702965;83;20992;-81
2021/12/21 03:15:45;;;;;;;7.17;3.62;;;;;;;-0.42;80.47;99157.31;1702691;84;21046;-80
2021/12/21 03:18:12;;;;;;;8.55;3.72;;;;;;;-0.37;80.28;99160.37;1690928;83;21543;-81
2021/12/21 03:20:40;;;;;;;5.42;3.47;;;;;;;-0.38;80.26;99170.13;1670502;84;21336;-81
2021/12/21 03:23:07;;;;;;;8.65;3.70;;;;;;;-0.38;80.23;99173.53;1702235;84;21020;-81
2021/12/21 03:25:35;;;;;;;6.87;3.80;;;;;;;-0.38;80.11;99170.98;1733201;82;21013;-79
2021/12/21 03:28:03;;;;;;;12.45;4.22;;;;;;;-0.39;80.29;99176.94;1745428;82;21064;-79
2021/12/21 03:30:30;;;;;;;8.53;4.33;;;;;;;-0.42;80.32;99181.58;1745550;82;21008;-80
2021/12/21 03:32:58;;;;;;;7.40;3.50;;;;;;;-0.45;80.40;99185.75;1745604;82;21009;-79
2021/12/21 03:35:25;;;;;;;9.60;4.17;;;;;;;-0.46;80.64;99194.23;1745565;82;21015;-80
2021/12/21 03:37:52;;;;;;;11.60;3.95;;;;;;;-0.44;80.25;99191.30;1733440;82;21039;-78
2021/12/21 03:40:20;;;;;;;10.63;4.05;;;;;;;-0.49;80.41;99195.03;1723958;82;21036;-81
2021/12/21 03:42:47;;;;;;;6.05;3.62;;;;;;;-0.48;80.08;99194.61;1738958;82;20984;-79
2021/12/21 03:45:15;;;;;;;8.55;3.62;;;;;;;-0.54;80.53;99204.70;1741480;82;21012;-80
2021/12/21 03:47:42;;;;;;;14.95;5.60;;;;;;;-0.53;80.10;99208.58;1744391;82;21107;-79
2021/12/21 03:50:17;;;;;;;9.60;4.45;;;;;;;-0.57;79.89;99222.11;1744680;82;21564;-80
2021/12/21 03:52:39;;;;;;;17.48;5.83;;;;;;;-0.63;78.91;99227.09;1712755;82;21531;-79
2021/12/21 03:55:07;;;;;;;22.02;7.47;;;;;;;-0.58;79.27;99229.73;1709002;82;21558;-80
2021/12/21 03:57:35;;;;;;;11.70;4.60;;;;;;;-0.59;79.42;99239.09;1705754;82;21091;-80
2021/12/21 04:00:07;;;;;;;30.88;10.10;;;;;;;-0.56;79.61;99237.01;1693285;84;21066;-80
2021/12/21 04:02:34;;;;;;;17.35;7.10;;;;;;;-0.53;79.63;99243.48;1710101;82;21063;-81
2021/12/21 04:05:03;;;;;;;12.53;4.60;;;;;;;-0.51;79.54;99242.67;1705933;84;21042;-80
2021/12/21 04:07:30;;;;;;;21.77;5.62;;;;;;;-0.47;78.75;99254.67;1702524;84;21089;-81
2021/12/21 04:09:58;;;;;;;18.48;7.58;;;;;;;-0.50;79.01;99257.57;1710281;84;21080;-81
2021/12/21 04:12:26;;;;;;;31.73;8.53;;;;;;;-0.48;79.34;99258.47;1691774;84;21015;-81
2021/12/21 04:14:56;;;;;;;21.80;8.85;;;;;;;-0.50;79.01;99261.40;1698381;84;21050;-81
2021/12/21 04:17:24;;;;;;;12.73;4.95;;;;;;;-0.51;78.92;99266.94;1681149;85;21031;-81
2021/12/21 04:19:52;;;;;;;10.95;4.50;;;;;;;-0.63;78.53;99270.50;1710575;84;20984;-81
2021/12/21 04:22:20;;;;;;;11.73;5.78;;;;;;;-0.70;78.74;99279.69;1710560;84;21022;-81
2021/12/21 04:24:48;;;;;;;7.10;3.92;;;;;;;-0.73;79.02;99285.16;1710505;84;21559;-81
2021/12/21 04:27:16;;;;;;;9.53;4.28;;;;;;;-0.78;78.87;99285.45;1707184;84;20984;-80
2021/12/21 04:29:44;;;;;;;9.95;4.70;;;;;;;-0.81;78.87;99291.36;1710197;84;21030;-81
2021/12/21 04:32:11;;;;;;;9.90;4.62;;;;;;;-0.84;78.99;99297.66;1710050;84;21015;-81
2021/12/21 04:34:39;;;;;;;11.65;4.42;;;;;;;-0.88;79.26;99303.09;1696590;84;21059;-81
2021/12/21 04:37:08;;;;;;;13.10;5.25;;;;;;;-0.93;78.83;99300.01;1704318;84;21101;-80
2021/12/21 04:40:01;;;;;;;15.15;6.90;;;;;;;-1.00;78.97;99298.98;1709777;84;21111;-81
2021/12/21 04:42:08;;;;;;;12.18;5.10;;;;;;;-1.06;78.78;99318.82;1689254;84;20984;-80
2021/12/21 04:44:36;;;;;;;15.95;5.22;;;;;;;-1.19;78.98;99312.98;1704643;84;21035;-80
2021/12/21 04:47:04;;;;;;;12.70;5.58;;;;;;;-1.23;79.14;99318.83;1697500;84;21083;-81
2021/12/21 04:49:31;;;;;;;12.58;4.67;;;;;;;-1.24;79.48;99324.74;1707753;84;21019;-79
2021/12/21 04:51:59;;;;;;;19.17;7.33;;;;;;;-1.26;79.68;99327.24;1736449;82;21550;-80
2021/12/21 04:54:26;;;;;;;11.15;5.53;;;;;;;-1.27;79.65;99320.86;1743982;82;21031;-79
2021/12/21 04:56:54;;;;;;;15.50;6.92;;;;;;;-1.28;79.35;99334.00;1735535;82;22197;-80
2021/12/21 04:59:21;;;;;;;11.57;5.30;;;;;;;-1.27;79.55;99338.71;1742065;82;21007;-81
2021/12/21 05:01:49;;;;;;;14.80;5.17;;;;;;;-1.27;79.50;99347.64;1733237;82;21004;-80
2021/12/21 05:04:16;;;;;;;11.18;4.87;;;;;;;-1.28;78.97;99355.68;1736344;82;21055;-81
2021/12/21 05:06:44;;;;;;;7.78;3.92;;;;;;;-1.30;79.05;99366.67;1734356;82;21036;-80
2021/12/21 05:09:21;;;;;;;15.90;6.35;;;;;;;-1.34;78.98;99372.09;1746361;82;21467;-81
2021/12/21 05:11:43;;;;;;;8.90;4.58;;;;;;;-1.34;79.10;99377.62;1674864;84;21063;-79
2021/12/21 05:14:10;;;;;;;11.45;4.58;;;;;;;-1.34;78.91;99378.89;1710851;82;21022;-81
2021/12/21 05:16:38;;;;;;;14.05;6.05;;;;;;;-1.31;79.08;99372.62;1714906;84;21013;-80
2021/12/21 05:19:06;;;;;;;15.10;6.17;;;;;;;-1.29;78.85;99387.55;1715883;83;21039;-80
2021/12/21 05:21:33;;;;;;;12.85;6.12;;;;;;;-1.38;78.46;99385.59;1733099;82;21158;-81
2021/12/21 05:24:01;;;;;;;14.73;5.30;;;;;;;-1.41;78.65;99402.96;1725226;82;21006;-80
2021/12/21 05:26:29;;;;;;;18.25;7.87;;;;;;;-1.42;78.95;99405.46;1699514;84;21028;-79
2021/12/21 05:28:56;;;;;;;50.63;18.23;;;;;;;-1.41;78.94;99417.41;1711015;84;21044;-80
2021/12/21 05:31:24;;;;;;;44.40;16.42;;;;;;;-1.44;78.41;99420.71;1712087;82;20992;-81
2021/12/21 05:33:52;;;;;;;48.58;19.60;;;;;;;-1.47;78.34;99426.16;1695103;82;21007;-80
2021/12/21 05:36:22;;;;;;;38.28;13.98;;;;;;;-1.52;78.16;99431.11;1710351;84;21442;-81
2021/12/21 05:38:56;;;;;;;21.82;9.23;;;;;;;-1.57;78.04;99430.13;1709897;84;21078;-80
2021/12/21 05:41:28;;;;;;;51.02;15.78;;;;;;;-1.62;77.56;99436.35;1709805;84;21013;-79
2021/12/21 05:43:53;;;;;;;30.80;13.00;;;;;;;-1.74;77.12;99439.82;1709643;84;21023;-80
2021/12/21 05:46:22;;;;;;;14.07;5.75;;;;;;;-1.80;76.29;99451.11;1710383;84;21097;-80
2021/12/21 05:48:51;;;;;;;18.70;3.12;;;;;;;-1.95;74.21;99454.46;1709598;84;21645;-80
2021/12/21 05:51:20;;;;;;;9.30;3.50;;;;;;;-2.02;73.14;99462.33;1706074;84;21075;-81
2021/12/21 05:53:49;;;;;;;6.65;3.72;;;;;;;-2.12;71.95;99479.43;1740655;82;21063;-80
2021/12/21 05:56:17;;;;;;;9.33;3.12;;;;;;;-2.21;71.60;99482.14;1745308;82;21000;-80
2021/12/21 05:58:44;;;;;;;7.55;3.50;;;;;;;-2.32;65.70;99488.56;1747314;82;21471;-80
2021/12/21 06:01:13;;;;;;;10.98;3.70;;;;;;;-2.37;66.77;99499.41;1746625;82;21076;-81
2021/12/21 06:03:40;;;;;;;12.90;4.08;;;;;;;-2.37;70.01;99496.44;1746358;82;21071;-80
2021/12/21 06:06:12;;;;;;;13.05;2.62;;;;;;;-2.52;63.39;99499.77;1745643;82;21178;-81
2021/12/21 06:08:38;;;;;;;8.03;3.70;;;;;;;-2.58;65.53;99505.52;1733451;82;21004;-80
2021/12/21 06:11:07;;;;;;;8.30;3.37;;;;;;;-2.64;63.83;99506.17;1706431;84;21047;-79
2021/12/21 06:22:44;;;;;;;4.67;2.25;;;;;;;-2.71;63.16;99527.13;1754049;82;21031;-80
2021/12/21 06:26:58;;;;;;;13.38;4.33;;;;;;;-2.91;62.73;99545.50;1670500;84;21019;-79
2021/12/21 06:29:26;;;;;;;13.13;5.05;;;;;;;-2.94;64.75;99549.64;1705304;83;21041;-79
2021/12/21 06:31:55;;;;;;;17.07;5.05;;;;;;;-2.95;66.06;99554.25;1697051;84;21071;-81
2021/12/21 06:34:22;;;;;;;13.43;5.10;;;;;;;-2.98;65.40;99566.84;1703110;84;21012;-81
2021/12/21 06:36:50;;;;;;;17.20;3.75;;;;;;;-3.02;60.38;99565.90;1702376;84;21039;-82
2021/12/21 06:39:18;;;;;;;8.90;2.42;;;;;;;-3.05;61.86;99581.03;1693184;84;21163;-81
2021/12/21 06:41:46;;;;;;;18.73;4.37;;;;;;;-3.10;58.73;99578.33;1687093;84;21094;-79
2021/12/21 06:44:16;;;;;;;17.02;5.00;;;;;;;-3.13;61.04;99584.97;1699468;84;21031;-79
2021/12/21 06:52:00;;;;;;;18.55;5.47;;;;;;;-3.14;62.00;99612.47;1702779;84;21147;-80
2021/12/21 06:54:28;;;;;;;23.73;6.22;;;;;;;-3.17;60.72;99615.77;1702695;84;21055;-81
2021/12/21 06:56:56;;;;;;;12.47;4.58;;;;;;;-3.18;60.38;99622.06;1697859;84;21086;-80
2021/12/21 06:59:24;;;;;;;14.68;3.83;;;;;;;-3.13;62.34;99635.42;1705510;84;20993;-81
2021/12/21 07:01:52;;;;;;;14.90;3.83;;;;;;;-3.12;62.71;99642.27;1690911;84;21147;-80
2021/12/21 07:04:20;;;;;;;11.10;4.40;;;;;;;-3.11;62.92;99645.66;1699423;84;21099;-81
2021/12/21 07:06:48;;;;;;;16.55;4.28;;;;;;;-3.08;62.69;99644.11;1717693;84;21016;-81
2021/12/21 07:09:59;;;;;;;8.33;3.40;;;;;;;-3.03;62.40;99651.91;1717230;84;21008;-80
2021/12/21 07:17:59;;;;;;;16.82;5.87;;;;;;;-2.98;63.46;99652.08;1692046;84;21040;-81
2021/12/21 07:20:09;;;;;;;9.33;4.55;;;;;;;-2.96;63.33;99655.55;1699824;83;21040;-81
2021/12/21 07:22:37;;;;;;;23.75;7.15;;;;;;;-2.95;61.68;99650.94;1696804;84;21068;-81
2021/12/21 07:25:05;;;;;;;18.20;5.40;;;;;;;-2.90;59.35;99649.44;1693544;84;21067;-81
2021/12/21 07:27:33;;;;;;;15.53;5.35;;;;;;;-2.87;60.35;99650.81;1694350;83;21003;-81
2021/12/21 07:30:00;;;;;;;21.93;5.62;;;;;;;-2.81;60.35;99662.08;1697402;84;21099;-80
2021/12/21 07:32:28;;;;;;;9.88;3.83;;;;;;;-2.76;60.80;99658.45;1697113;84;21026;-80
2021/12/21 07:34:55;;;;;;;12.30;4.25;;;;;;;-2.67;61.88;99661.73;1698119;84;20988;-81
2021/12/21 07:37:25;;;;;;;13.30;3.83;;;;;;;-2.57;59.35;99673.13;1703459;84;21043;-81
2021/12/21 07:39:53;;;;;;;6.70;3.10;;;;;;;-2.47;62.39;99679.86;1686333;84;21043;-80
2021/12/21 07:42:21;;;;;;;8.53;2.70;;;;;;;-2.38;62.62;99681.04;1706868;84;21035;-80
2021/12/21 07:44:49;;;;;;;9.48;2.77;;;;;;;-2.31;61.47;99685.11;1707593;82;21008;-80
2021/12/21 07:47:18;;;;;;;11.35;2.47;;;;;;;-2.23;53.11;99690.48;1739369;82;21094;-80
2021/12/21 07:49:46;;;;;;;7.40;3.25;;;;;;;-2.15;59.51;99692.89;1735127;82;20983;-81
2021/12/21 07:52:15;;;;;;;11.25;3.40;;;;;;;-2.08;60.11;99694.85;1738272;82;20999;-80
2021/12/21 07:54:43;;;;;;;10.25;4.03;;;;;;;-2.00;57.33;99700.22;1739352;82;21023;-81
2021/12/21 07:57:11;;;;;;;13.00;5.08;;;;;;;-1.93;56.30;99706.00;1738092;82;21066;-80
2021/12/21 07:59:40;;;;;;;10.45;4.22;;;;;;;-1.84;58.87;99712.67;1745593;82;21071;-80
2021/12/21 08:02:11;;;;;;;7.40;2.55;;;;;;;-1.75;58.64;99721.06;1741561;82;21024;-80
2021/12/21 08:04:39;;;;;;;9.48;2.80;;;;;;;-1.70;60.25;99724.61;1744403;82;21571;-81
2021/12/21 08:07:12;;;;;;;5.42;2.62;;;;;;;-1.65;59.08;99729.86;1738320;82;20981;-80
2021/12/21 08:09:41;;;;;;;15.65;2.70;;;;;;;-1.61;58.95;99727.48;1745524;82;21039;-80
2021/12/21 08:12:16;;;;;;;3.95;1.52;;;;;;;-1.54;54.44;99734.06;1727065;82;21040;-79
2021/12/21 08:14:47;;;;;;;3.70;1.37;;;;;;;-1.48;57.83;99740.23;1747266;82;21003;-81
2021/12/21 08:17:21;;;;;;;5.42;2.12;;;;;;;-1.46;55.64;99737.32;1744557;82;21048;-80
2021/12/21 08:19:48;;;;;;;2.30;1.40;;;;;;;-1.39;49.58;99752.44;1710015;81;21071;-81
2021/12/21 08:28:23;;;;;;;3.83;1.62;;;;;;;-1.25;43.40;99763.10;1723646;79;21190;-79
2021/12/21 08:30:52;;;;;;;18.35;4.47;;;;;;;-1.16;49.71;99765.08;1705619;82;21562;-81
2021/12/21 08:33:20;;;;;;;13.18;3.05;;;;;;;-1.12;48.84;99776.70;1740796;82;21089;-80
2021/12/21 08:35:47;;;;;;;7.50;1.52;;;;;;;-1.09;44.94;99776.81;1751442;80;21011;-83
2021/12/21 08:38:17;;;;;;;4.70;1.95;;;;;;;-1.07;46.52;99778.14;1717056;81;21341;-82
2021/12/21 08:40:49;;;;;;;4.80;1.20;;;;;;;-1.02;44.96;99775.31;1719185;81;21063;-83
2021/12/21 08:43:23;;;;;;;3.33;1.47;;;;;;;-1.04;40.54;99778.23;1709845;81;20973;-82
2021/12/21 08:45:54;;;;;;;4.42;1.90;;;;;;;-1.03;40.29;99778.70;1724912;82;21008;-83
2021/12/21 08:48:24;;;;;;;8.80;2.47;;;;;;;-1.03;39.06;99784.66;1716774;83;21032;-81
2021/12/21 08:50:55;;;;;;;4.17;1.98;;;;;;;-1.00;38.68;99782.61;1715480;81;20993;-83
2021/12/21 08:53:24;;;;;;;2.37;1.12;;;;;;;-0.97;42.38;99780.17;1729744;82;21019;-81
2021/12/21 08:55:54;;;;;;;3.58;1.47;;;;;;;-0.97;39.11;99784.41;1717930;83;21066;-82
2021/12/21 08:58:23;;;;;;;1.85;0.88;;;;;;;-0.93;43.78;99776.04;1725873;83;21158;-83
2021/12/21 09:00:52;;;;;;;7.08;3.20;;;;;;;-0.86;44.17;99775.39;1718887;83;21013;-84
2021/12/21 09:03:22;;;;;;;4.72;1.32;;;;;;;-0.78;45.70;99774.36;1705927;82;21087;-83
2021/12/21 09:21:02;;;;;;;8.35;2.33;;;;;;;-0.13;43.60;99756.30;1814563;77;22635;-78
2021/12/21 09:23:29;;;;;;;7.92;1.90;;;;;;;-0.21;40.25;99755.22;1827314;77;21097;-78
2021/12/21 09:25:56;;;;;;;6.90;1.82;;;;;;;-0.25;38.37;99769.59;1852829;77;20948;-76
2021/12/21 09:28:22;;;;;;;3.45;1.17;;;;;;;-0.28;41.71;99764.41;1847170;76;21048;-78
2021/12/21 09:30:49;;;;;;;4.37;1.40;;;;;;;-0.30;37.32;99766.05;1815323;78;22080;-77
2021/12/21 09:33:18;;;;;;;11.88;1.72;;;;;;;-0.34;36.40;99764.20;1853195;76;21003;-77
2021/12/21 09:35:44;;;;;;;4.20;1.72;;;;;;;-0.32;42.72;99762.59;1852872;76;21226;-76
2021/12/21 09:38:11;;;;;;;4.85;1.92;;;;;;;-0.33;40.24;99769.78;1811293;77;21030;-78
2021/12/21 09:40:39;;;;;;;4.53;1.32;;;;;;;-0.31;42.92;99761.75;1811702;77;21007;-78
2021/12/21 09:43:09;;;;;;;7.47;2.58;;;;;;;-0.27;42.09;99753.35;1846059;76;21030;-77
2021/12/21 09:45:36;;;;;;;18.12;2.22;;;;;;;-0.23;43.61;99744.95;1849180;77;21533;-78
2021/12/21 09:48:06;;;;;;;4.25;1.80;;;;;;;-0.21;39.60;99746.28;1819384;77;21039;-77
2021/12/21 09:50:34;;;;;;;2.47;1.20;;;;;;;-0.16;42.06;99743.84;1824502;77;20966;-79
2021/12/21 09:53:00;;;;;;;3.70;1.50;;;;;;;-0.13;38.31;99751.61;1819410;77;20987;-78
2021/12/21 09:55:29;;;;;;;7.58;1.40;;;;;;;-0.09;43.74;99741.92;1813475;78;21037;-79
2021/12/21 09:57:56;;;;;;;4.05;1.42;;;;;;;-0.08;41.06;99745.81;1844682;76;21014;-79
2021/12/21 10:00:34;;;;;;;2.70;1.10;;;;;;;-0.03;42.04;99733.15;1813171;78;21015;-77
2021/12/21 10:03:04;;;;;;;1.40;0.93;;;;;;;0.03;41.34;99737.15;1852733;76;21006;-77
2021/12/21 10:05:36;;;;;;;9.13;2.37;;;;;;;0.01;42.44;99732.41;1838444;77;22219;-77
2021/12/21 10:08:08;;;;;;;6.70;2.33;;;;;;;0.06;41.02;99726.13;1809689;77;21002;-81
2021/12/21 10:10:39;;;;;;;3.47;1.70;;;;;;;0.17;40.28;99734.55;1844347;77;21059;-79
2021/12/21 10:13:13;;;;;;;2.05;1.00;;;;;;;0.23;39.21;99746.64;1819098;77;21021;-79
2021/12/21 10:15:50;;;;;;;1.47;0.88;;;;;;;0.19;37.58;99740.57;1816598;77;21162;-78
2021/12/21 10:18:27;;;;;;;2.37;1.45;;;;;;;0.23;40.46;99742.80;1837137;77;20942;-77
2021/12/21 10:20:57;;;;;;;21.70;6.28;;;;;;;0.35;42.07;99733.31;1826764;77;20967;-77
2021/12/21 10:23:28;;;;;;;5.42;2.10;;;;;;;0.34;37.90;99727.77;1810659;78;21045;-78
2021/12/21 10:26:01;;;;;;;6.30;1.80;;;;;;;0.41;40.70;99723.23;1785999;78;21021;-78
2021/12/21 10:28:42;;;;;;;3.35;1.67;;;;;;;0.55;41.92;99725.72;1810806;78;20984;-79
2021/12/21 10:31:26;;;;;;;6.65;1.30;;;;;;;0.62;39.40;99722.92;1790818;78;21124;-77
2021/12/21 10:33:54;;;;;;;;;;;;;;;0.70;38.62;99720.14;1811294;78;20994;-76
2021/12/21 10:36:21;;;;;;;6.42;2.33;;;;;;;0.87;36.95;99720.95;1800912;78;20283;-77
2021/12/21 10:38:54;;;;;;;6.15;2.10;;;;;;;0.99;40.40;99717.01;1806224;78;21060;-78
2021/12/21 10:41:33;;;;;;;5.40;1.70;;;;;;;1.09;34.97;99718.05;1816538;78;20982;-76
2021/12/21 10:44:07;;;;;;;5.17;1.80;;;;;;;1.22;36.89;99715.80;1815338;77;21609;-78
2021/12/21 10:46:38;;;;;;;2.98;1.22;;;;;;;1.36;38.87;99716.97;1828734;77;21481;-80
2021/12/21 10:49:18;;;;;;;1.67;1.10;;;;;;;1.48;37.53;99710.81;1811620;77;21024;-79
2021/12/21 10:51:55;;;;;;;3.22;1.22;;;;;;;1.49;34.98;99705.27;1815030;77;20978;-77
2021/12/21 10:54:40;;;;;;;3.02;1.25;;;;;;;1.52;36.76;99707.91;1819079;77;20983;-75
2021/12/21 10:57:15;;;;;;;9.50;1.60;;;;;;;1.51;34.48;99705.77;1813661;77;21199;-78
2021/12/21 10:59:46;;;;;;;7.10;2.65;;;;;;;1.54;35.27;99703.26;1820359;77;21030;-79
2021/12/21 11:02:19;;;;;;;4.08;2.05;;;;;;;1.65;35.75;99716.31;1821620;77;21018;-86
2021/12/21 11:04:49;;;;;;;12.15;2.17;;;;;;;1.73;38.56;99704.91;1811604;78;21027;-84
2021/12/21 11:07:37;;;;;;;5.33;1.98;;;;;;;1.74;36.16;99704.95;1814787;78;20951;-80
2021/12/21 11:10:16;;;;;;;8.00;1.72;;;;;;;1.77;39.94;99708.87;1807936;77;21104;-78
2021/12/21 11:12:57;;;;;;;7.05;2.62;;;;;;;1.84;35.18;99702.58;1813781;77;21139;-80
2021/12/21 11:15:29;;;;;;;5.37;2.00;;;;;;;2.03;39.78;99697.38;1817373;77;20987;-79
2021/12/21 11:17:59;;;;;;;4.53;2.05;;;;;;;2.16;36.12;99710.87;1807568;78;21541;-81
2021/12/21 11:20:27;;;;;;;5.47;1.77;;;;;;;2.17;31.52;99701.94;1821304;77;20996;-77
2021/12/21 11:22:55;;;;;;;8.23;3.00;;;;;;;2.19;35.37;99700.27;1806706;78;21011;-80
2021/12/21 11:25:23;;;;;;;7.80;2.10;;;;;;;2.27;38.18;99700.41;1814251;78;21026;-80
2021/12/21 11:27:50;;;;;;;6.12;1.98;;;;;;;2.37;38.86;99693.74;1805550;77;21550;-81
2021/12/21 11:30:21;;;;;;;3.12;1.70;;;;;;;2.36;37.34;99692.00;1811218;78;21029;-80
2021/12/21 11:32:51;;;;;;;9.20;2.55;;;;;;;2.34;34.81;99693.25;1807182;78;22703;-78
2021/12/21 11:38:08;;;;;;;4.92;2.27;;;;;;;2.31;35.62;99688.08;1803299;78;21541;-80
2021/12/21 11:40:46;;;;;;;2.62;1.57;;;;;;;2.35;36.29;99686.44;1809475;78;21080;-78
2021/12/21 11:43:22;;;;;;;4.40;1.92;;;;;;;2.42;37.08;99684.83;1813775;78;22081;-77
2021/12/21 11:46:02;;;;;;;4.30;1.85;;;;;;;2.56;37.85;99684.20;1814867;78;20974;-77
2021/12/21 11:48:43;;;;;;;9.68;2.37;;;;;;;2.64;37.32;99681.77;1817712;78;21689;-77
2021/12/21 11:51:13;;;;;;;9.10;2.33;;;;;;;2.72;39.17;99678.05;1807373;78;21085;-76
2021/12/21 11:53:41;;;;;;;6.25;1.80;;;;;;;2.68;33.60;99677.12;1821289;77;21410;-77
2021/12/21 11:56:12;;;;;;;9.23;3.58;;;;;;;2.91;35.87;99680.50;1822829;77;21010;-77
2021/12/21 11:58:42;;;;;;;8.03;2.25;;;;;;;3.04;37.60;99677.67;1807925;78;21018;-79
2021/12/21 12:01:23;;;;;;;12.82;4.15;;;;;;;3.16;38.96;99676.16;1813435;78;21001;-79
2021/12/21 12:04:09;;;;;;;8.50;2.57;;;;;;;3.23;34.30;99680.95;1805676;77;21062;-78
2021/12/21 12:06:45;;;;;;;;;;;;;;;3.13;32.31;99686.81;1818660;77;21005;-77
2021/12/21 12:09:31;;;;;;;3.27;1.52;;;;;;;3.00;32.27;99684.47;1798248;78;20291;-80
2021/12/21 12:12:17;;;;;;;30.90;4.80;;;;;;;2.84;35.59;99678.66;1804487;78;21025;-78
2021/12/21 12:14:47;;;;;;;3.92;1.70;;;;;;;2.99;35.37;99677.19;1802510;78;21508;-78
2021/12/21 12:17:17;;;;;;;2.70;1.35;;;;;;;2.80;31.42;99679.03;1805959;78;21552;-79
2021/12/21 12:20:02;;;;;;;3.87;1.75;;;;;;;2.61;31.30;99683.42;1810639;77;21555;-82
2021/12/21 12:22:47;;;;;;;4.95;1.52;;;;;;;2.51;31.77;99680.72;1816560;78;21038;-81
2021/12/21 12:25:26;;;;;;;4.53;1.40;;;;;;;2.19;32.95;99677.60;1817162;77;20947;-82
2021/12/21 12:27:54;;;;;;;8.05;1.62;;;;;;;2.12;33.28;99680.45;1813087;78;20981;-79
2021/12/21 12:30:27;;;;;;;9.60;2.15;;;;;;;2.08;33.94;99683.80;1813661;78;21014;-79
2021/12/21 12:33:00;;;;;;;7.67;2.40;;;;;;;2.05;32.86;99679.03;1816426;78;21148;-77
2021/12/21 12:35:33;;;;;;;6.00;2.27;;;;;;;1.81;32.17;99681.59;1837372;77;21976;-77
2021/12/21 12:38:08;;;;;;;10.53;2.52;;;;;;;1.70;31.73;99685.21;1823822;77;20965;-85
2021/12/21 12:40:44;;;;;;;5.55;2.50;;;;;;;1.77;33.01;99683.23;1830559;77;21024;-80
2021/12/21 12:43:23;;;;;;;4.80;2.37;;;;;;;1.62;31.19;99691.89;1814010;78;20942;-80
2021/12/21 12:46:03;;;;;;;6.12;2.30;;;;;;;1.58;31.54;99681.98;1798888;78;21015;-78
2021/12/21 12:48:47;;;;;;;3.92;1.90;;;;;;;1.48;32.33;99676.65;1798627;79;21046;-78
2021/12/21 12:51:30;;;;;;;3.92;1.95;;;;;;;1.45;33.07;99679.98;1809147;78;20979;-78
2021/12/21 12:53:57;;;;;;;6.12;2.85;;;;;;;1.35;33.58;99684.47;1826088;77;21111;-79
2021/12/21 12:56:26;;;;;;;4.45;1.92;;;;;;;1.27;33.58;99700.95;1813828;77;20979;-78
2021/12/21 12:59:04;;;;;;;6.12;2.50;;;;;;;1.28;34.53;99695.02;1839014;77;20977;-79
2021/12/21 13:01:41;;;;;;;4.60;2.10;;;;;;;1.29;35.24;99691.61;1805311;79;21055;-79
2021/12/21 13:04:12;;;;;;;12.58;3.77;;;;;;;1.34;35.96;99688.74;1811165;78;21026;-79
2021/12/21 13:06:41;;;;;;;7.20;2.30;;;;;;;1.45;36.53;99688.10;1825896;77;21546;-77